sensor_id;sensor_type;location;lat;lon;timestamp;P1;durP1;ratioP1;P2;durP2;ratioP2
15112;SDS011;7657;50.140;7.076;2022-07-23T00:00:14;7.40;;;6.30;;
15112;SDS011;7657;50.140;7.076;2022-07-23T00:02:42;8.32;;;7.28;;
15112;SDS011;7657;50.140;7.076;2022-07-23T00:05:09;8.27;;;7.32;;
15112;SDS011;7657;50.140;7.076;2022-07-23T00:07:36;11.10;;;7.45;;
15112;SDS011;7657;50.140;7.076;2022-07-23T00:10:03;7.63;;;6.28;;
15112;SDS011;7657;50.140;7.076;2022-07-23T00:12:31;7.40;;;6.57;;
15112;SDS011;7657;50.140;7.076;2022-07-23T00:14:58;9.18;;;7.43;;
15112;SDS011;7657;50.140;7.076;2022-07-23T00:17:27;10.18;;;7.13;;
15112;SDS011;7657;50.140;7.076;2022-07-23T00:19:54;10.02;;;7.88;;
15112;SDS011;7657;50.140;7.076;2022-07-23T00:22:21;8.73;;;7.28;;
15112;SDS011;7657;50.140;7.076;2022-07-23T00:24:48;8.48;;;7.43;;
15112;SDS011;7657;50.140;7.076;2022-07-23T00:27:15;11.98;;;7.90;;
15112;SDS011;7657;50.140;7.076;2022-07-23T00:29:42;9.77;;;7.95;;
15112;SDS011;7657;50.140;7.076;2022-07-23T00:32:09;9.60;;;7.47;;
15112;SDS011;7657;50.140;7.076;2022-07-23T00:34:37;10.38;;;8.43;;
15112;SDS011;7657;50.140;7.076;2022-07-23T00:37:04;12.65;;;8.52;;
15112;SDS011;7657;50.140;7.076;2022-07-23T00:39:31;10.60;;;8.82;;
15112;SDS011;7657;50.140;7.076;2022-07-23T00:41:58;12.27;;;10.15;;
15112;SDS011;7657;50.140;7.076;2022-07-23T00:44:25;13.02;;;9.48;;
15112;SDS011;7657;50.140;7.076;2022-07-23T00:46:54;12.00;;;9.80;;
15112;SDS011;7657;50.140;7.076;2022-07-23T00:49:24;12.27;;;10.02;;
15112;SDS011;7657;50.140;7.076;2022-07-23T00:51:53;15.32;;;10.18;;
15112;SDS011;7657;50.140;7.076;2022-07-23T00:54:21;13.43;;;10.27;;
15112;SDS011;7657;50.140;7.076;2022-07-23T00:56:49;15.82;;;11.88;;
15112;SDS011;7657;50.140;7.076;2022-07-23T00:59:16;14.70;;;12.00;;
15112;SDS011;7657;50.140;7.076;2022-07-23T01:01:43;14.25;;;11.35;;
15112;SDS011;7657;50.140;7.076;2022-07-23T01:04:12;16.15;;;11.90;;
15112;SDS011;7657;50.140;7.076;2022-07-23T01:06:40;14.38;;;11.23;;
15112;SDS011;7657;50.140;7.076;2022-07-23T01:09:08;15.80;;;11.52;;
15112;SDS011;7657;50.140;7.076;2022-07-23T01:11:36;13.95;;;11.45;;
15112;SDS011;7657;50.140;7.076;2022-07-23T01:14:10;14.88;;;11.10;;
15112;SDS011;7657;50.140;7.076;2022-07-23T01:16:38;12.88;;;10.15;;
15112;SDS011;7657;50.140;7.076;2022-07-23T01:19:05;12.52;;;10.70;;
15112;SDS011;7657;50.140;7.076;2022-07-23T01:21:34;11.73;;;10.48;;
15112;SDS011;7657;50.140;7.076;2022-07-23T01:24:04;14.02;;;11.48;;
15112;SDS011;7657;50.140;7.076;2022-07-23T01:26:32;13.32;;;11.25;;
15112;SDS011;7657;50.140;7.076;2022-07-23T01:28:59;15.35;;;10.73;;
15112;SDS011;7657;50.140;7.076;2022-07-23T01:31:26;15.75;;;12.27;;
15112;SDS011;7657;50.140;7.076;2022-07-23T01:33:53;13.90;;;11.02;;
15112;SDS011;7657;50.140;7.076;2022-07-23T01:36:20;14.32;;;11.27;;
15112;SDS011;7657;50.140;7.076;2022-07-23T01:38:47;18.23;;;11.75;;
15112;SDS011;7657;50.140;7.076;2022-07-23T01:41:17;14.15;;;11.70;;
15112;SDS011;7657;50.140;7.076;2022-07-23T01:43:44;14.95;;;11.07;;
15112;SDS011;7657;50.140;7.076;2022-07-23T01:46:11;15.38;;;11.38;;
15112;SDS011;7657;50.140;7.076;2022-07-23T01:48:38;12.82;;;11.20;;
15112;SDS011;7657;50.140;7.076;2022-07-23T01:51:05;12.43;;;10.48;;
15112;SDS011;7657;50.140;7.076;2022-07-23T01:53:33;13.93;;;10.57;;
15112;SDS011;7657;50.140;7.076;2022-07-23T01:56:00;14.18;;;10.75;;
15112;SDS011;7657;50.140;7.076;2022-07-23T01:58:29;13.55;;;11.32;;
15112;SDS011;7657;50.140;7.076;2022-07-23T02:00:57;12.43;;;10.25;;
15112;SDS011;7657;50.140;7.076;2022-07-23T02:03:24;13.57;;;10.30;;
15112;SDS011;7657;50.140;7.076;2022-07-23T02:05:51;14.25;;;10.73;;
15112;SDS011;7657;50.140;7.076;2022-07-23T02:08:18;13.20;;;10.73;;
15112;SDS011;7657;50.140;7.076;2022-07-23T02:10:45;13.75;;;10.68;;
15112;SDS011;7657;50.140;7.076;2022-07-23T02:13:13;15.95;;;11.30;;
15112;SDS011;7657;50.140;7.076;2022-07-23T02:15:41;12.50;;;10.63;;
15112;SDS011;7657;50.140;7.076;2022-07-23T02:18:08;13.70;;;10.77;;
15112;SDS011;7657;50.140;7.076;2022-07-23T02:20:35;13.45;;;10.98;;
15112;SDS011;7657;50.140;7.076;2022-07-23T02:23:04;14.30;;;11.60;;
15112;SDS011;7657;50.140;7.076;2022-07-23T02:45:45;14.05;;;11.15;;
15112;SDS011;7657;50.140;7.076;2022-07-23T02:48:12;12.70;;;10.93;;
15112;SDS011;7657;50.140;7.076;2022-07-23T02:50:39;13.18;;;11.25;;
15112;SDS011;7657;50.140;7.076;2022-07-23T02:53:06;13.10;;;10.77;;
15112;SDS011;7657;50.140;7.076;2022-07-23T02:55:33;14.98;;;11.65;;
15112;SDS011;7657;50.140;7.076;2022-07-23T02:58:00;16.35;;;12.27;;
15112;SDS011;7657;50.140;7.076;2022-07-23T03:00:27;15.13;;;11.95;;
15112;SDS011;7657;50.140;7.076;2022-07-23T03:02:55;13.40;;;11.50;;
15112;SDS011;7657;50.140;7.076;2022-07-23T03:05:22;13.43;;;11.57;;
15112;SDS011;7657;50.140;7.076;2022-07-23T03:07:49;16.63;;;11.43;;
15112;SDS011;7657;50.140;7.076;2022-07-23T03:10:16;14.93;;;11.45;;
15112;SDS011;7657;50.140;7.076;2022-07-23T03:12:43;14.07;;;11.77;;
15112;SDS011;7657;50.140;7.076;2022-07-23T03:15:10;15.30;;;11.90;;
15112;SDS011;7657;50.140;7.076;2022-07-23T03:17:37;15.13;;;11.60;;
15112;SDS011;7657;50.140;7.076;2022-07-23T03:20:06;13.75;;;11.48;;
15112;SDS011;7657;50.140;7.076;2022-07-23T03:22:34;14.65;;;11.52;;
15112;SDS011;7657;50.140;7.076;2022-07-23T03:25:01;13.07;;;10.98;;
15112;SDS011;7657;50.140;7.076;2022-07-23T03:27:29;14.80;;;12.07;;
15112;SDS011;7657;50.140;7.076;2022-07-23T03:29:57;14.30;;;11.52;;
15112;SDS011;7657;50.140;7.076;2022-07-23T03:32:25;15.63;;;11.90;;
15112;SDS011;7657;50.140;7.076;2022-07-23T03:34:52;15.23;;;11.68;;
15112;SDS011;7657;50.140;7.076;2022-07-23T03:37:21;14.25;;;11.55;;
15112;SDS011;7657;50.140;7.076;2022-07-23T03:39:48;15.20;;;10.82;;
15112;SDS011;7657;50.140;7.076;2022-07-23T03:42:15;13.10;;;10.82;;
15112;SDS011;7657;50.140;7.076;2022-07-23T03:44:42;12.68;;;10.93;;
15112;SDS011;7657;50.140;7.076;2022-07-23T03:47:08;11.88;;;10.25;;
15112;SDS011;7657;50.140;7.076;2022-07-23T03:49:35;13.15;;;10.88;;
15112;SDS011;7657;50.140;7.076;2022-07-23T03:52:03;15.23;;;11.52;;
15112;SDS011;7657;50.140;7.076;2022-07-23T03:54:31;15.32;;;11.43;;
15112;SDS011;7657;50.140;7.076;2022-07-23T03:56:58;14.82;;;11.68;;
15112;SDS011;7657;50.140;7.076;2022-07-23T03:59:25;12.60;;;10.95;;
15112;SDS011;7657;50.140;7.076;2022-07-23T04:01:52;13.27;;;11.32;;
15112;SDS011;7657;50.140;7.076;2022-07-23T04:04:19;13.88;;;11.40;;
15112;SDS011;7657;50.140;7.076;2022-07-23T04:06:46;16.88;;;11.95;;
15112;SDS011;7657;50.140;7.076;2022-07-23T04:09:13;13.95;;;11.43;;
15112;SDS011;7657;50.140;7.076;2022-07-23T04:11:41;16.50;;;11.27;;
15112;SDS011;7657;50.140;7.076;2022-07-23T04:14:09;15.48;;;10.93;;
15112;SDS011;7657;50.140;7.076;2022-07-23T04:16:36;14.18;;;10.90;;
15112;SDS011;7657;50.140;7.076;2022-07-23T04:19:03;14.80;;;11.30;;
15112;SDS011;7657;50.140;7.076;2022-07-23T04:21:30;12.82;;;10.75;;
15112;SDS011;7657;50.140;7.076;2022-07-23T04:23:57;18.30;;;12.30;;
15112;SDS011;7657;50.140;7.076;2022-07-23T04:26:24;14.20;;;11.90;;
15112;SDS011;7657;50.140;7.076;2022-07-23T04:28:52;15.48;;;11.45;;
15112;SDS011;7657;50.140;7.076;2022-07-23T04:31:19;14.65;;;11.55;;
15112;SDS011;7657;50.140;7.076;2022-07-23T04:33:46;15.23;;;11.70;;
15112;SDS011;7657;50.140;7.076;2022-07-23T04:36:13;14.23;;;11.73;;
15112;SDS011;7657;50.140;7.076;2022-07-23T04:38:40;15.43;;;11.85;;
15112;SDS011;7657;50.140;7.076;2022-07-23T04:41:07;15.55;;;11.68;;
15112;SDS011;7657;50.140;7.076;2022-07-23T04:43:34;11.50;;;10.25;;
15112;SDS011;7657;50.140;7.076;2022-07-23T04:46:02;12.48;;;9.85;;
15112;SDS011;7657;50.140;7.076;2022-07-23T04:48:29;11.23;;;9.30;;
15112;SDS011;7657;50.140;7.076;2022-07-23T04:50:56;11.55;;;9.30;;
15112;SDS011;7657;50.140;7.076;2022-07-23T04:53:23;12.57;;;9.10;;
15112;SDS011;7657;50.140;7.076;2022-07-23T04:55:50;12.15;;;9.35;;
15112;SDS011;7657;50.140;7.076;2022-07-23T04:58:17;10.98;;;8.30;;
15112;SDS011;7657;50.140;7.076;2022-07-23T05:00:45;10.65;;;8.48;;
15112;SDS011;7657;50.140;7.076;2022-07-23T05:03:13;11.73;;;8.73;;
15112;SDS011;7657;50.140;7.076;2022-07-23T05:05:41;10.40;;;8.52;;
15112;SDS011;7657;50.140;7.076;2022-07-23T05:08:07;11.07;;;9.38;;
15112;SDS011;7657;50.140;7.076;2022-07-23T05:10:35;11.43;;;9.10;;
15112;SDS011;7657;50.140;7.076;2022-07-23T05:13:02;11.68;;;10.23;;
15112;SDS011;7657;50.140;7.076;2022-07-23T05:15:29;12.25;;;9.98;;
15112;SDS011;7657;50.140;7.076;2022-07-23T05:17:56;12.23;;;9.90;;
15112;SDS011;7657;50.140;7.076;2022-07-23T05:20:24;11.18;;;9.38;;
15112;SDS011;7657;50.140;7.076;2022-07-23T05:22:51;14.02;;;9.25;;
15112;SDS011;7657;50.140;7.076;2022-07-23T05:25:18;12.20;;;8.48;;
15112;SDS011;7657;50.140;7.076;2022-07-23T05:27:45;9.98;;;7.72;;
15112;SDS011;7657;50.140;7.076;2022-07-23T05:30:12;9.07;;;7.15;;
15112;SDS011;7657;50.140;7.076;2022-07-23T05:32:39;8.98;;;6.78;;
15112;SDS011;7657;50.140;7.076;2022-07-23T05:35:07;8.90;;;7.05;;
15112;SDS011;7657;50.140;7.076;2022-07-23T05:37:35;9.15;;;6.90;;
15112;SDS011;7657;50.140;7.076;2022-07-23T05:40:03;7.65;;;6.63;;
15112;SDS011;7657;50.140;7.076;2022-07-23T05:42:32;8.68;;;7.22;;
15112;SDS011;7657;50.140;7.076;2022-07-23T05:44:59;8.32;;;7.40;;
15112;SDS011;7657;50.140;7.076;2022-07-23T05:47:27;8.30;;;6.60;;
15112;SDS011;7657;50.140;7.076;2022-07-23T05:49:53;8.35;;;6.95;;
15112;SDS011;7657;50.140;7.076;2022-07-23T05:52:20;7.38;;;6.45;;
15112;SDS011;7657;50.140;7.076;2022-07-23T05:54:49;8.52;;;6.40;;
15112;SDS011;7657;50.140;7.076;2022-07-23T05:57:16;7.80;;;6.65;;
15112;SDS011;7657;50.140;7.076;2022-07-23T05:59:43;9.30;;;5.75;;
15112;SDS011;7657;50.140;7.076;2022-07-23T06:02:09;7.63;;;6.47;;
15112;SDS011;7657;50.140;7.076;2022-07-23T06:04:36;7.70;;;5.85;;
15112;SDS011;7657;50.140;7.076;2022-07-23T06:07:03;7.93;;;6.10;;
15112;SDS011;7657;50.140;7.076;2022-07-23T06:09:30;10.27;;;6.65;;
15112;SDS011;7657;50.140;7.076;2022-07-23T06:11:59;7.70;;;6.15;;
15112;SDS011;7657;50.140;7.076;2022-07-23T06:14:26;9.63;;;6.63;;
15112;SDS011;7657;50.140;7.076;2022-07-23T06:16:53;7.22;;;6.40;;
15112;SDS011;7657;50.140;7.076;2022-07-23T06:19:19;7.95;;;6.68;;
15112;SDS011;7657;50.140;7.076;2022-07-23T06:21:46;8.70;;;6.38;;
15112;SDS011;7657;50.140;7.076;2022-07-23T06:24:13;8.35;;;6.45;;
15112;SDS011;7657;50.140;7.076;2022-07-23T06:26:40;7.85;;;5.95;;
15112;SDS011;7657;50.140;7.076;2022-07-23T06:29:09;6.95;;;6.10;;
15112;SDS011;7657;50.140;7.076;2022-07-23T06:31:36;10.93;;;7.35;;
15112;SDS011;7657;50.140;7.076;2022-07-23T06:34:03;8.00;;;6.22;;
15112;SDS011;7657;50.140;7.076;2022-07-23T06:36:30;6.55;;;5.95;;
15112;SDS011;7657;50.140;7.076;2022-07-23T06:38:57;6.53;;;5.70;;
15112;SDS011;7657;50.140;7.076;2022-07-23T06:41:24;7.53;;;5.85;;
15112;SDS011;7657;50.140;7.076;2022-07-23T06:43:51;7.72;;;6.72;;
15112;SDS011;7657;50.140;7.076;2022-07-23T06:46:19;8.43;;;6.53;;
15112;SDS011;7657;50.140;7.076;2022-07-23T06:48:46;8.68;;;6.55;;
15112;SDS011;7657;50.140;7.076;2022-07-23T06:51:13;7.45;;;6.13;;
15112;SDS011;7657;50.140;7.076;2022-07-23T06:53:40;6.38;;;5.75;;
15112;SDS011;7657;50.140;7.076;2022-07-23T06:56:07;7.47;;;5.47;;
15112;SDS011;7657;50.140;7.076;2022-07-23T06:58:34;6.50;;;4.95;;
15112;SDS011;7657;50.140;7.076;2022-07-23T07:01:01;6.80;;;5.10;;
15112;SDS011;7657;50.140;7.076;2022-07-23T07:03:30;6.55;;;5.47;;
15112;SDS011;7657;50.140;7.076;2022-07-23T07:05:56;6.00;;;5.35;;
15112;SDS011;7657;50.140;7.076;2022-07-23T07:08:23;7.45;;;5.20;;
15112;SDS011;7657;50.140;7.076;2022-07-23T07:10:50;8.75;;;5.97;;
15112;SDS011;7657;50.140;7.076;2022-07-23T07:13:17;8.00;;;5.90;;
15112;SDS011;7657;50.140;7.076;2022-07-23T07:15:44;6.18;;;5.07;;
15112;SDS011;7657;50.140;7.076;2022-07-23T07:18:11;8.35;;;6.25;;
15112;SDS011;7657;50.140;7.076;2022-07-23T07:20:40;6.95;;;5.88;;
15112;SDS011;7657;50.140;7.076;2022-07-23T07:23:07;6.78;;;5.68;;
15112;SDS011;7657;50.140;7.076;2022-07-23T07:25:34;6.72;;;5.70;;
15112;SDS011;7657;50.140;7.076;2022-07-23T07:28:01;6.85;;;4.80;;
15112;SDS011;7657;50.140;7.076;2022-07-23T07:30:28;6.90;;;4.95;;
15112;SDS011;7657;50.140;7.076;2022-07-23T07:32:55;8.25;;;5.28;;
15112;SDS011;7657;50.140;7.076;2022-07-23T07:35:22;8.13;;;5.00;;
15112;SDS011;7657;50.140;7.076;2022-07-23T07:37:50;6.50;;;5.20;;
15112;SDS011;7657;50.140;7.076;2022-07-23T07:40:17;5.50;;;4.85;;
15112;SDS011;7657;50.140;7.076;2022-07-23T07:42:45;6.47;;;5.63;;
15112;SDS011;7657;50.140;7.076;2022-07-23T07:45:12;7.03;;;5.50;;
15112;SDS011;7657;50.140;7.076;2022-07-23T07:47:40;6.95;;;4.80;;
15112;SDS011;7657;50.140;7.076;2022-07-23T07:50:08;5.50;;;4.72;;
15112;SDS011;7657;50.140;7.076;2022-07-23T07:52:35;6.45;;;4.50;;
15112;SDS011;7657;50.140;7.076;2022-07-23T07:55:04;4.80;;;4.30;;
15112;SDS011;7657;50.140;7.076;2022-07-23T07:57:32;7.18;;;4.85;;
15112;SDS011;7657;50.140;7.076;2022-07-23T07:59:59;7.78;;;5.18;;
15112;SDS011;7657;50.140;7.076;2022-07-23T08:02:26;7.35;;;4.88;;
15112;SDS011;7657;50.140;7.076;2022-07-23T08:04:53;7.10;;;5.00;;
15112;SDS011;7657;50.140;7.076;2022-07-23T08:07:22;7.05;;;5.32;;
15112;SDS011;7657;50.140;7.076;2022-07-23T08:09:49;9.27;;;5.38;;
15112;SDS011;7657;50.140;7.076;2022-07-23T08:12:17;6.32;;;5.50;;
15112;SDS011;7657;50.140;7.076;2022-07-23T08:14:44;6.60;;;5.60;;
15112;SDS011;7657;50.140;7.076;2022-07-23T08:17:11;6.35;;;5.00;;
15112;SDS011;7657;50.140;7.076;2022-07-23T08:19:38;6.93;;;5.57;;
15112;SDS011;7657;50.140;7.076;2022-07-23T08:22:05;7.65;;;5.90;;
15112;SDS011;7657;50.140;7.076;2022-07-23T08:24:32;6.57;;;5.07;;
15112;SDS011;7657;50.140;7.076;2022-07-23T08:26:59;6.13;;;4.95;;
15112;SDS011;7657;50.140;7.076;2022-07-23T08:29:27;6.15;;;5.03;;
15112;SDS011;7657;50.140;7.076;2022-07-23T08:31:54;6.53;;;4.90;;
15112;SDS011;7657;50.140;7.076;2022-07-23T08:34:21;5.13;;;4.47;;
15112;SDS011;7657;50.140;7.076;2022-07-23T08:36:48;5.70;;;4.30;;
15112;SDS011;7657;50.140;7.076;2022-07-23T08:39:15;5.38;;;4.78;;
15112;SDS011;7657;50.140;7.076;2022-07-23T08:41:42;5.82;;;4.30;;
15112;SDS011;7657;50.140;7.076;2022-07-23T08:44:09;4.85;;;4.22;;
15112;SDS011;7657;50.140;7.076;2022-07-23T08:46:37;6.75;;;4.40;;
15112;SDS011;7657;50.140;7.076;2022-07-23T08:49:06;9.55;;;4.50;;
15112;SDS011;7657;50.140;7.076;2022-07-23T08:51:34;8.60;;;4.50;;
15112;SDS011;7657;50.140;7.076;2022-07-23T08:54:01;4.78;;;4.25;;
15112;SDS011;7657;50.140;7.076;2022-07-23T08:56:29;6.07;;;4.65;;
15112;SDS011;7657;50.140;7.076;2022-07-23T08:58:56;4.78;;;4.38;;
15112;SDS011;7657;50.140;7.076;2022-07-23T09:01:24;5.00;;;3.85;;
15112;SDS011;7657;50.140;7.076;2022-07-23T09:03:52;5.07;;;4.45;;
15112;SDS011;7657;50.140;7.076;2022-07-23T09:06:19;5.25;;;4.70;;
15112;SDS011;7657;50.140;7.076;2022-07-23T09:08:46;6.47;;;4.50;;
15112;SDS011;7657;50.140;7.076;2022-07-23T09:11:15;5.68;;;4.28;;
15112;SDS011;7657;50.140;7.076;2022-07-23T09:13:45;7.55;;;4.03;;
15112;SDS011;7657;50.140;7.076;2022-07-23T09:16:13;8.18;;;4.35;;
15112;SDS011;7657;50.140;7.076;2022-07-23T09:18:43;5.70;;;3.97;;
15112;SDS011;7657;50.140;7.076;2022-07-23T09:21:18;4.25;;;3.53;;
15112;SDS011;7657;50.140;7.076;2022-07-23T09:23:50;5.53;;;4.10;;
15112;SDS011;7657;50.140;7.076;2022-07-23T09:26:20;5.00;;;4.25;;
15112;SDS011;7657;50.140;7.076;2022-07-23T09:28:50;4.00;;;3.60;;
15112;SDS011;7657;50.140;7.076;2022-07-23T09:31:19;7.57;;;3.97;;
15112;SDS011;7657;50.140;7.076;2022-07-23T09:33:46;4.85;;;3.90;;
15112;SDS011;7657;50.140;7.076;2022-07-23T09:36:13;3.55;;;3.13;;
15112;SDS011;7657;50.140;7.076;2022-07-23T09:38:48;3.83;;;3.47;;
15112;SDS011;7657;50.140;7.076;2022-07-23T09:41:16;8.70;;;3.70;;
15112;SDS011;7657;50.140;7.076;2022-07-23T09:43:43;4.13;;;3.17;;
15112;SDS011;7657;50.140;7.076;2022-07-23T09:46:18;5.90;;;3.70;;
15112;SDS011;7657;50.140;7.076;2022-07-23T09:48:46;4.15;;;3.63;;
15112;SDS011;7657;50.140;7.076;2022-07-23T09:51:13;3.83;;;3.50;;
15112;SDS011;7657;50.140;7.076;2022-07-23T09:53:42;4.65;;;4.10;;
15112;SDS011;7657;50.140;7.076;2022-07-23T09:56:10;4.95;;;3.78;;
15112;SDS011;7657;50.140;7.076;2022-07-23T09:58:40;5.10;;;3.90;;
15112;SDS011;7657;50.140;7.076;2022-07-23T10:01:13;5.78;;;4.13;;
15112;SDS011;7657;50.140;7.076;2022-07-23T10:03:41;3.92;;;3.40;;
15112;SDS011;7657;50.140;7.076;2022-07-23T10:06:08;5.03;;;4.30;;
15112;SDS011;7657;50.140;7.076;2022-07-23T10:08:36;5.28;;;3.85;;
15112;SDS011;7657;50.140;7.076;2022-07-23T10:11:06;4.32;;;3.92;;
15112;SDS011;7657;50.140;7.076;2022-07-23T10:13:37;4.82;;;4.28;;
15112;SDS011;7657;50.140;7.076;2022-07-23T10:16:19;4.03;;;3.70;;
15112;SDS011;7657;50.140;7.076;2022-07-23T10:18:47;4.57;;;4.18;;
15112;SDS011;7657;50.140;7.076;2022-07-23T10:21:16;4.30;;;3.58;;
15112;SDS011;7657;50.140;7.076;2022-07-23T10:23:47;5.90;;;3.90;;
15112;SDS011;7657;50.140;7.076;2022-07-23T10:26:27;6.35;;;3.65;;
15112;SDS011;7657;50.140;7.076;2022-07-23T10:29:06;5.10;;;3.60;;
15112;SDS011;7657;50.140;7.076;2022-07-23T10:31:42;3.92;;;3.47;;
15112;SDS011;7657;50.140;7.076;2022-07-23T10:34:20;5.00;;;3.70;;
15112;SDS011;7657;50.140;7.076;2022-07-23T10:36:54;4.30;;;3.33;;
15112;SDS011;7657;50.140;7.076;2022-07-23T10:39:26;4.03;;;3.20;;
15112;SDS011;7657;50.140;7.076;2022-07-23T10:42:07;4.25;;;3.70;;
15112;SDS011;7657;50.140;7.076;2022-07-23T10:44:41;5.05;;;4.00;;
15112;SDS011;7657;50.140;7.076;2022-07-23T10:47:09;6.03;;;3.88;;
15112;SDS011;7657;50.140;7.076;2022-07-23T10:55:39;7.32;;;3.90;;
15112;SDS011;7657;50.140;7.076;2022-07-23T10:58:07;4.57;;;3.85;;
15112;SDS011;7657;50.140;7.076;2022-07-23T11:00:36;4.35;;;3.90;;
15112;SDS011;7657;50.140;7.076;2022-07-23T11:03:05;4.32;;;3.50;;
15112;SDS011;7657;50.140;7.076;2022-07-23T11:05:48;4.70;;;3.70;;
15112;SDS011;7657;50.140;7.076;2022-07-23T11:08:18;4.50;;;3.33;;
15112;SDS011;7657;50.140;7.076;2022-07-23T11:10:50;5.65;;;3.78;;
15112;SDS011;7657;50.140;7.076;2022-07-23T11:13:25;4.30;;;3.78;;
15112;SDS011;7657;50.140;7.076;2022-07-23T11:16:05;3.80;;;3.50;;
15112;SDS011;7657;50.140;7.076;2022-07-23T11:21:44;4.93;;;3.90;;
15112;SDS011;7657;50.140;7.076;2022-07-23T11:24:16;4.57;;;3.95;;
15112;SDS011;7657;50.140;7.076;2022-07-23T11:26:48;4.80;;;3.97;;
15112;SDS011;7657;50.140;7.076;2022-07-23T11:32:23;4.55;;;4.15;;
15112;SDS011;7657;50.140;7.076;2022-07-23T11:34:54;5.13;;;4.18;;
15112;SDS011;7657;50.140;7.076;2022-07-23T11:37:29;6.68;;;4.15;;
15112;SDS011;7657;50.140;7.076;2022-07-23T11:40:04;5.15;;;4.57;;
15112;SDS011;7657;50.140;7.076;2022-07-23T11:42:34;4.45;;;4.05;;
15112;SDS011;7657;50.140;7.076;2022-07-23T11:45:02;4.82;;;3.95;;
15112;SDS011;7657;50.140;7.076;2022-07-23T11:47:31;4.00;;;3.70;;
15112;SDS011;7657;50.140;7.076;2022-07-23T11:49:59;4.75;;;3.55;;
15112;SDS011;7657;50.140;7.076;2022-07-23T11:52:27;5.95;;;4.32;;
15112;SDS011;7657;50.140;7.076;2022-07-23T11:54:56;4.10;;;3.78;;
15112;SDS011;7657;50.140;7.076;2022-07-23T11:57:25;6.55;;;4.20;;
15112;SDS011;7657;50.140;7.076;2022-07-23T11:59:55;4.30;;;3.90;;
15112;SDS011;7657;50.140;7.076;2022-07-23T12:02:23;4.85;;;4.38;;
15112;SDS011;7657;50.140;7.076;2022-07-23T12:04:52;5.03;;;4.60;;
15112;SDS011;7657;50.140;7.076;2022-07-23T12:07:24;4.78;;;4.38;;
15112;SDS011;7657;50.140;7.076;2022-07-23T12:09:56;4.63;;;4.13;;
15112;SDS011;7657;50.140;7.076;2022-07-23T12:12:25;6.57;;;4.32;;
15112;SDS011;7657;50.140;7.076;2022-07-23T12:14:53;5.72;;;4.05;;
15112;SDS011;7657;50.140;7.076;2022-07-23T12:17:24;4.60;;;4.10;;
15112;SDS011;7657;50.140;7.076;2022-07-23T12:19:55;4.72;;;4.22;;
15112;SDS011;7657;50.140;7.076;2022-07-23T12:22:23;4.72;;;4.22;;
15112;SDS011;7657;50.140;7.076;2022-07-23T12:24:55;5.57;;;4.13;;
15112;SDS011;7657;50.140;7.076;2022-07-23T12:27:25;5.82;;;4.20;;
15112;SDS011;7657;50.140;7.076;2022-07-23T12:29:53;5.22;;;4.63;;
15112;SDS011;7657;50.140;7.076;2022-07-23T12:32:21;5.85;;;4.20;;
15112;SDS011;7657;50.140;7.076;2022-07-23T12:34:50;4.85;;;4.40;;
15112;SDS011;7657;50.140;7.076;2022-07-23T12:37:31;5.30;;;4.25;;
15112;SDS011;7657;50.140;7.076;2022-07-23T12:42:52;4.97;;;4.43;;
15112;SDS011;7657;50.140;7.076;2022-07-23T12:45:20;5.70;;;4.38;;
15112;SDS011;7657;50.140;7.076;2022-07-23T12:47:54;5.30;;;4.80;;
15112;SDS011;7657;50.140;7.076;2022-07-23T12:50:43;4.57;;;3.97;;
15112;SDS011;7657;50.140;7.076;2022-07-23T12:53:17;5.13;;;4.28;;
15112;SDS011;7657;50.140;7.076;2022-07-23T12:55:47;4.53;;;4.13;;
15112;SDS011;7657;50.140;7.076;2022-07-23T12:58:15;4.75;;;4.18;;
15112;SDS011;7657;50.140;7.076;2022-07-23T13:01:00;5.70;;;4.57;;
15112;SDS011;7657;50.140;7.076;2022-07-23T13:03:33;4.75;;;4.35;;
15112;SDS011;7657;50.140;7.076;2022-07-23T13:06:04;6.78;;;4.43;;
15112;SDS011;7657;50.140;7.076;2022-07-23T13:08:34;4.68;;;4.28;;
15112;SDS011;7657;50.140;7.076;2022-07-23T13:11:02;5.10;;;4.60;;
15112;SDS011;7657;50.140;7.076;2022-07-23T13:13:31;5.22;;;4.60;;
15112;SDS011;7657;50.140;7.076;2022-07-23T13:15:59;4.68;;;4.28;;
15112;SDS011;7657;50.140;7.076;2022-07-23T13:18:27;4.50;;;4.07;;
15112;SDS011;7657;50.140;7.076;2022-07-23T13:20:55;4.78;;;3.95;;
15112;SDS011;7657;50.140;7.076;2022-07-23T13:23:22;5.13;;;4.15;;
15112;SDS011;7657;50.140;7.076;2022-07-23T13:25:51;4.47;;;4.07;;
15112;SDS011;7657;50.140;7.076;2022-07-23T13:28:18;4.55;;;4.15;;
15112;SDS011;7657;50.140;7.076;2022-07-23T13:30:47;6.32;;;4.03;;
15112;SDS011;7657;50.140;7.076;2022-07-23T13:33:16;4.18;;;3.70;;
15112;SDS011;7657;50.140;7.076;2022-07-23T13:35:43;4.93;;;3.50;;
15112;SDS011;7657;50.140;7.076;2022-07-23T13:38:10;4.07;;;3.53;;
15112;SDS011;7657;50.140;7.076;2022-07-23T13:40:39;5.95;;;3.75;;
15112;SDS011;7657;50.140;7.076;2022-07-23T13:43:10;4.00;;;3.70;;
15112;SDS011;7657;50.140;7.076;2022-07-23T13:45:38;4.07;;;3.50;;
15112;SDS011;7657;50.140;7.076;2022-07-23T13:48:07;4.35;;;3.95;;
15112;SDS011;7657;50.140;7.076;2022-07-23T13:50:35;3.85;;;3.53;;
15112;SDS011;7657;50.140;7.076;2022-07-23T13:53:03;5.68;;;3.83;;
15112;SDS011;7657;50.140;7.076;2022-07-23T13:55:31;4.20;;;3.90;;
15112;SDS011;7657;50.140;7.076;2022-07-23T13:57:59;3.72;;;3.42;;
15112;SDS011;7657;50.140;7.076;2022-07-23T14:00:28;3.92;;;3.53;;
15112;SDS011;7657;50.140;7.076;2022-07-23T14:02:55;4.25;;;3.60;;
15112;SDS011;7657;50.140;7.076;2022-07-23T14:05:23;4.22;;;3.70;;
15112;SDS011;7657;50.140;7.076;2022-07-23T14:07:50;4.68;;;3.35;;
15112;SDS011;7657;50.140;7.076;2022-07-23T14:10:18;5.13;;;3.80;;
15112;SDS011;7657;50.140;7.076;2022-07-23T14:12:47;3.72;;;3.30;;
15112;SDS011;7657;50.140;7.076;2022-07-23T14:15:15;3.92;;;3.60;;
15112;SDS011;7657;50.140;7.076;2022-07-23T14:17:45;3.97;;;3.60;;
15112;SDS011;7657;50.140;7.076;2022-07-23T14:20:13;3.85;;;3.50;;
15112;SDS011;7657;50.140;7.076;2022-07-23T14:22:40;4.72;;;3.80;;
15112;SDS011;7657;50.140;7.076;2022-07-23T14:25:08;4.30;;;3.90;;
15112;SDS011;7657;50.140;7.076;2022-07-23T14:27:35;4.28;;;3.53;;
15112;SDS011;7657;50.140;7.076;2022-07-23T14:30:03;3.72;;;3.42;;
15112;SDS011;7657;50.140;7.076;2022-07-23T14:32:31;6.38;;;3.92;;
15112;SDS011;7657;50.140;7.076;2022-07-23T14:35:00;3.72;;;3.42;;
15112;SDS011;7657;50.140;7.076;2022-07-23T14:37:27;4.38;;;3.47;;
15112;SDS011;7657;50.140;7.076;2022-07-23T14:39:54;4.07;;;3.63;;
15112;SDS011;7657;50.140;7.076;2022-07-23T14:42:21;3.90;;;3.55;;
15112;SDS011;7657;50.140;7.076;2022-07-23T14:44:48;5.28;;;3.78;;
15112;SDS011;7657;50.140;7.076;2022-07-23T14:47:14;3.70;;;3.40;;
15112;SDS011;7657;50.140;7.076;2022-07-23T14:49:42;5.05;;;3.72;;
15112;SDS011;7657;50.140;7.076;2022-07-23T14:52:10;4.38;;;3.92;;
15112;SDS011;7657;50.140;7.076;2022-07-23T14:54:37;3.78;;;3.40;;
15112;SDS011;7657;50.140;7.076;2022-07-23T14:57:04;4.35;;;3.40;;
15112;SDS011;7657;50.140;7.076;2022-07-23T14:59:33;4.25;;;3.67;;
15112;SDS011;7657;50.140;7.076;2022-07-23T15:02:00;6.72;;;3.80;;
15112;SDS011;7657;50.140;7.076;2022-07-23T15:04:27;4.00;;;3.58;;
15112;SDS011;7657;50.140;7.076;2022-07-23T15:06:54;4.93;;;3.70;;
15112;SDS011;7657;50.140;7.076;2022-07-23T15:09:23;4.22;;;3.83;;
15112;SDS011;7657;50.140;7.076;2022-07-23T15:11:50;5.28;;;4.05;;
15112;SDS011;7657;50.140;7.076;2022-07-23T15:14:16;6.93;;;3.85;;
15112;SDS011;7657;50.140;7.076;2022-07-23T15:16:43;5.30;;;3.92;;
15112;SDS011;7657;50.140;7.076;2022-07-23T15:19:10;5.38;;;4.20;;
15112;SDS011;7657;50.140;7.076;2022-07-23T15:21:37;4.40;;;4.00;;
15112;SDS011;7657;50.140;7.076;2022-07-23T15:24:04;4.25;;;3.85;;
15112;SDS011;7657;50.140;7.076;2022-07-23T15:26:33;5.93;;;4.07;;
15112;SDS011;7657;50.140;7.076;2022-07-23T15:29:00;6.55;;;3.90;;
15112;SDS011;7657;50.140;7.076;2022-07-23T15:31:28;5.03;;;3.80;;
15112;SDS011;7657;50.140;7.076;2022-07-23T15:33:56;4.20;;;3.80;;